Time;durP1;ratioP1;P1;durP2;ratioP2;P2;SDS_P1;SDS_P2;PMS_P1;PMS_P2;Temp;Humidity;BMP_temperature;BMP_pressure;BME280_temperature;BME280_humidity;BME280_pressure;Samples;Min_cycle;Max_cycle;Signal;HPM_P1;HPM_P2
2022/08/18 00:00:38;;;;;;;4.70;3.80;;;24.00;74.50;;;24.45;49.94;98366.53;5042043;27;119703;-71
2022/08/18 00:10:31;;;;;;;8.60;3.60;;;23.90;74.80;;;24.28;49.95;98354.13;5035864;27;124354;-72
2022/08/18 00:12:58;;;;;;;5.10;4.10;;;23.90;74.80;;;24.20;50.32;98364.66;5040622;27;118231;-71
2022/08/18 00:15:29;;;;;;;5.90;4.03;;;23.80;74.90;;;24.18;50.44;98355.81;5030956;27;118837;-71
2022/08/18 00:17:56;;;;;;;3.90;3.50;;;23.90;75.20;;;24.15;50.52;98353.84;5035727;27;124059;-71
2022/08/18 00:20:24;;;;;;;4.30;3.80;;;23.80;75.30;;;24.11;50.56;98355.88;5035976;27;124682;-71
2022/08/18 00:22:52;;;;;;;4.33;3.90;;;23.70;75.50;;;24.11;50.77;98361.50;5020520;27;119246;-71
2022/08/18 00:25:19;;;;;;;4.80;3.93;;;23.70;75.70;;;24.09;50.94;98358.31;5044863;27;118787;-72
2022/08/18 00:27:46;;;;;;;4.20;3.80;;;23.70;76.00;;;24.08;50.82;98355.91;5036814;27;123958;-71
2022/08/18 00:30:20;;;;;;;3.67;3.27;;;23.70;76.00;;;24.06;50.73;98356.31;5040649;27;123937;-72
2022/08/18 00:32:53;;;;;;;4.70;4.07;;;23.70;76.10;;;24.06;50.68;98353.50;5044844;27;120298;-71
2022/08/18 00:35:26;;;;;;;5.37;4.10;;;23.70;76.20;;;24.05;50.59;98345.44;5047668;27;119990;-72
2022/08/18 00:37:55;;;;;;;6.93;3.67;;;23.60;76.10;;;24.03;50.74;98343.03;5041585;27;124437;-72
2022/08/18 00:40:36;;;;;;;4.50;3.77;;;23.60;76.20;;;24.03;50.60;98341.00;5038857;27;123625;-70
2022/08/18 00:43:06;;;;;;;3.87;3.47;;;23.60;76.40;;;24.03;50.74;98334.56;5043777;27;119436;-71
2022/08/18 00:45:39;;;;;;;4.63;3.60;;;23.60;76.60;;;24.01;50.98;98339.81;5044879;27;118820;-71
2022/08/18 00:48:10;;;;;;;4.70;3.33;;;23.60;76.70;;;23.97;50.79;98330.59;5032258;27;123909;-71
2022/08/18 00:50:39;;;;;;;5.60;3.50;;;23.60;76.70;;;23.95;50.98;98335.84;5038524;27;122865;-71
2022/08/18 00:53:34;;;;;;;3.67;3.00;;;23.50;76.80;;;23.94;50.98;98328.59;5047209;27;119903;-71
2022/08/18 00:56:11;;;;;;;4.80;3.70;;;23.60;77.00;;;23.93;50.96;98324.16;5034630;27;119028;-71
2022/08/18 00:58:52;;;;;;;4.23;3.83;;;23.50;77.10;;;23.92;51.07;98326.19;5032304;27;123828;-70
2022/08/18 01:01:23;;;;;;;5.30;3.57;;;23.50;77.10;;;23.91;51.08;98318.09;5042318;27;123492;-70
2022/08/18 01:03:59;;;;;;;4.47;3.60;;;23.50;77.10;;;23.91;50.97;98327.41;5041982;27;118425;-71
2022/08/18 01:06:33;;;;;;;5.40;3.67;;;23.50;77.20;;;23.88;50.94;98314.09;5042646;27;119045;-70
2022/08/18 01:09:01;;;;;;;4.73;3.87;;;23.50;77.10;;;23.86;50.90;98304.44;5041159;27;124062;-71
2022/08/18 01:11:28;;;;;;;4.20;3.80;;;24.40;77.90;;;23.86;50.91;98310.09;5037858;27;123747;-69
2022/08/18 01:13:55;;;;;;;4.73;4.17;;;23.40;77.00;;;23.88;50.92;98318.94;5033263;27;119762;-71
2022/08/18 01:22:03;;;;;;;4.10;3.70;;;23.40;77.00;;;23.84;50.75;98304.06;5046682;27;123656;-71
2022/08/18 01:27:20;;;;;;;4.27;3.60;;;23.40;76.90;;;23.81;50.62;98298.03;5042505;27;120503;-72
2022/08/18 01:29:49;;;;;;;5.73;3.70;;;23.40;76.90;;;23.81;50.64;98300.84;5044593;27;124137;-72
2022/08/18 01:32:20;;;;;;;4.27;3.03;;;23.40;76.90;;;23.83;50.60;98285.53;5035551;27;123539;-71
2022/08/18 01:34:50;;;;;;;4.40;3.77;;;23.40;76.90;;;23.85;50.85;98274.63;5039716;27;119095;-72
2022/08/18 01:37:22;;;;;;;3.93;3.37;;;23.40;77.10;;;23.87;51.17;98280.66;5036244;27;119498;-72
2022/08/18 01:39:49;;;;;;;4.07;3.67;;;23.40;77.50;;;23.87;51.46;98269.38;5038102;27;123968;-71
2022/08/18 01:42:17;;;;;;;4.60;3.90;;;23.40;77.90;;;23.88;51.46;98270.97;5026422;28;123693;-72
2022/08/18 01:44:46;;;;;;;4.23;3.70;;;23.40;78.30;;;23.89;51.74;98252.84;5026911;27;119200;-72
2022/08/18 01:47:17;;;;;;;5.43;3.63;;;23.50;78.60;;;23.90;52.02;98254.44;5039281;27;120618;-72
2022/08/18 01:49:43;;;;;;;8.33;4.27;;;23.50;78.80;;;23.90;51.72;98260.88;5047332;27;123953;-71
2022/08/18 01:52:20;;;;;;;7.47;3.93;;;23.50;79.00;;;23.89;51.69;98250.03;5043763;27;123787;-71
2022/08/18 01:54:48;;;;;;;4.70;4.07;;;23.50;79.00;;;23.87;51.96;98239.13;5042402;27;119018;-71
2022/08/18 01:57:16;;;;;;;4.40;4.00;;;23.50;79.10;;;23.87;52.08;98241.97;5038872;27;119030;-71
2022/08/18 01:59:43;;;;;;;5.40;4.03;;;23.40;79.10;;;23.86;51.93;98231.06;5043734;27;124391;-71
2022/08/18 02:02:18;;;;;;;3.50;3.20;;;23.40;79.10;;;23.83;51.86;98234.72;5037719;27;123997;-73
2022/08/18 02:04:46;;;;;;;4.60;3.53;;;23.40;79.10;;;23.81;51.78;98244.44;5040103;27;119981;-70
2022/08/18 02:07:13;;;;;;;7.50;3.73;;;23.40;79.10;;;23.80;51.58;98251.31;5033914;27;119362;-71
2022/08/18 02:09:42;;;;;;;5.27;4.07;;;23.40;78.80;;;23.77;51.37;98254.94;5029468;27;124031;-72
2022/08/18 02:12:10;;;;;;;5.47;3.37;;;23.40;79.30;;;23.77;51.18;98252.09;5033420;27;123519;-71
2022/08/18 02:14:37;;;;;;;4.47;3.83;;;23.40;78.50;;;23.75;51.16;98248.09;5036353;27;120593;-70
2022/08/18 02:17:07;;;;;;;5.07;4.10;;;23.30;78.40;;;23.75;51.16;98229.16;5029566;27;120462;-70
2022/08/18 02:19:41;;;;;;;5.90;4.27;;;23.30;78.40;;;23.73;51.27;98240.06;5025106;27;124112;-70
2022/08/18 02:22:14;;;;;;;4.00;3.60;;;23.30;78.40;;;23.70;51.33;98243.69;5041878;27;123685;-70
2022/08/18 02:24:42;;;;;;;4.77;3.87;;;23.30;78.50;;;23.68;51.35;98248.94;5029729;27;119544;-70
2022/08/18 02:27:10;;;;;;;4.90;3.30;;;23.20;78.50;;;23.67;51.45;98244.50;5035022;27;119075;-70
2022/08/18 02:29:37;;;;;;;7.53;3.80;;;23.20;78.70;;;23.66;51.45;98250.56;5029908;27;123088;-71
2022/08/18 02:32:05;;;;;;;4.00;3.53;;;23.30;79.00;;;23.63;51.61;98249.38;5028190;27;124038;-71
2022/08/18 02:34:32;;;;;;;4.47;4.00;;;23.20;78.90;;;23.55;51.85;98245.00;5039591;27;119111;-70
2022/08/18 02:37:00;;;;;;;6.90;4.73;;;23.10;78.90;;;23.45;51.95;98248.69;5025735;27;119019;-71
2022/08/18 02:39:29;;;;;;;5.07;3.83;;;23.10;79.10;;;23.41;52.24;98245.09;5035760;27;123566;-71
2022/08/18 02:41:56;;;;;;;5.17;4.20;;;23.10;79.30;;;23.38;52.23;98246.72;5016787;27;122667;-70
2022/08/18 02:44:22;;;;;;;4.33;3.93;;;23.00;79.50;;;23.33;52.46;98239.50;5034448;27;119506;-71
2022/08/18 02:46:53;;;;;;;7.83;4.40;;;23.00;79.60;;;23.28;52.53;98241.94;5031600;27;118222;-72
2022/08/18 02:49:20;;;;;;;5.10;4.10;;;23.00;79.70;;;23.19;52.38;98238.78;5043412;27;124455;-72
2022/08/18 02:51:49;;;;;;;4.17;3.77;;;22.90;79.60;;;23.13;52.81;98246.84;5037068;27;123892;-73
2022/08/18 02:54:19;;;;;;;6.60;4.90;;;22.90;79.90;;;23.08;52.71;98250.91;5046487;27;119307;-72
2022/08/18 02:56:46;;;;;;;7.27;4.33;;;22.80;80.10;;;23.06;53.00;98249.72;5016536;27;118899;-72
2022/08/18 02:59:16;;;;;;;4.97;4.27;;;22.70;80.30;;;23.01;53.05;98244.50;5028673;27;123362;-72
2022/08/18 03:01:48;;;;;;;4.57;4.10;;;22.70;80.60;;;22.90;53.61;98245.31;5039579;27;123864;-71
2022/08/18 03:04:22;;;;;;;3.90;3.40;;;22.60;80.90;;;22.87;53.82;98240.50;5037380;27;120045;-72
2022/08/18 03:06:48;;;;;;;5.27;4.10;;;22.60;81.30;;;22.87;53.74;98246.13;5039864;27;120155;-72
2022/08/18 03:09:17;;;;;;;4.67;4.17;;;22.60;81.60;;;22.86;53.70;98250.19;5039676;27;124057;-71
2022/08/18 03:11:44;;;;;;;4.23;3.83;;;22.60;81.80;;;22.87;54.06;98243.31;5041381;27;123801;-72
2022/08/18 03:14:12;;;;;;;5.33;4.33;;;22.50;81.90;;;22.89;53.73;98243.72;5032707;27;119241;-72
2022/08/18 03:16:44;;;;;;;6.60;4.20;;;22.50;82.20;;;22.92;53.85;98240.09;5040047;27;119470;-72
2022/08/18 03:19:13;;;;;;;4.40;4.00;;;22.50;82.30;;;22.96;54.10;98237.25;5048284;27;124254;-72
2022/08/18 03:21:40;;;;;;;4.60;4.07;;;22.50;82.40;;;22.99;53.82;98228.00;5045700;27;122875;-71
2022/08/18 03:24:06;;;;;;;4.93;3.97;;;22.60;82.50;;;23.00;53.93;98235.25;5044932;27;119577;-71
2022/08/18 03:26:33;;;;;;;3.80;3.50;;;22.60;82.60;;;23.00;53.87;98226.78;5043755;27;118250;-72
2022/08/18 03:29:00;;;;;;;5.40;4.20;;;22.60;82.70;;;23.02;53.93;98229.19;5037811;27;124276;-72
2022/08/18 03:31:30;;;;;;;5.37;3.67;;;22.60;82.80;;;23.03;53.85;98228.00;5026071;27;124239;-71
2022/08/18 03:33:59;;;;;;;5.07;3.77;;;22.60;82.80;;;23.02;53.93;98232.81;5033930;27;119327;-71
2022/08/18 03:36:30;;;;;;;4.70;4.20;;;22.60;82.80;;;23.02;53.91;98229.19;5028418;27;119385;-72
2022/08/18 03:39:00;;;;;;;3.97;3.57;;;22.60;82.90;;;22.99;53.88;98233.63;5024900;27;124338;-72
2022/08/18 03:41:27;;;;;;;6.87;5.20;;;22.50;82.80;;;23.01;53.92;98230.41;5028763;27;124454;-72
2022/08/18 03:43:54;;;;;;;4.50;4.03;;;22.60;83.00;;;23.02;53.94;98217.91;5031630;27;120119;-71
2022/08/18 03:46:22;;;;;;;5.00;4.03;;;22.60;83.00;;;23.04;53.79;98215.50;5031812;27;120190;-71
2022/08/18 03:48:52;;;;;;;4.50;3.80;;;22.60;83.00;;;23.05;53.75;98217.91;5025385;27;124675;-71
2022/08/18 03:51:25;;;;;;;3.70;3.30;;;22.60;83.00;;;23.06;53.71;98215.91;5027521;27;123807;-72
2022/08/18 03:53:57;;;;;;;5.30;4.20;;;22.60;83.00;;;23.07;53.94;98217.50;5024117;27;120287;-72
2022/08/18 03:56:29;;;;;;;3.73;3.43;;;22.60;83.00;;;23.09;53.83;98217.88;5034129;27;119956;-72
2022/08/18 03:59:04;;;;;;;5.43;3.90;;;22.60;83.00;;;23.10;53.71;98213.84;5034722;27;125143;-72
2022/08/18 04:01:37;;;;;;;4.40;3.70;;;22.60;83.00;;;23.11;53.61;98218.28;5035861;27;123719;-72
2022/08/18 04:04:07;;;;;;;4.27;3.63;;;22.60;82.90;;;23.09;53.59;98218.69;5041536;27;118467;-72
2022/08/18 04:06:44;;;;;;;4.00;3.60;;;22.60;82.80;;;23.11;53.51;98209.84;5028432;27;121016;-71
2022/08/18 04:09:14;;;;;;;5.13;4.67;;;22.70;83.10;;;23.11;53.71;98201.38;5032734;27;124531;-72
2022/08/18 04:11:42;;;;;;;5.60;4.60;;;22.60;83.30;;;23.11;54.06;98212.66;5038301;27;123702;-71
2022/08/18 04:14:13;;;;;;;6.40;4.40;;;22.70;83.50;;;23.12;53.86;98208.59;5028764;27;119430;-71
2022/08/18 04:16:40;;;;;;;7.30;4.40;;;22.60;83.50;;;23.15;54.13;98216.25;5028040;27;118506;-71
2022/08/18 04:19:08;;;;;;;6.93;4.20;;;22.70;83.70;;;23.16;54.09;98212.22;5026917;27;125037;-70
2022/08/18 04:21:38;;;;;;;4.90;4.40;;;22.70;83.80;;;23.17;53.92;98222.28;5028443;27;123599;-70
2022/08/18 04:24:06;;;;;;;5.27;3.80;;;22.70;83.90;;;23.18;53.99;98232.31;5030105;27;119256;-70
2022/08/18 04:26:42;;;;;;;4.40;4.00;;;22.70;83.90;;;23.15;54.24;98230.31;5037841;27;118994;-71
2022/08/18 04:29:10;;;;;;;6.80;4.33;;;22.70;84.00;;;23.12;54.15;98236.78;5030357;27;124928;-71
2022/08/18 04:31:37;;;;;;;4.10;3.70;;;22.70;84.10;;;23.12;54.36;98239.59;5032547;27;124307;-71
2022/08/18 04:34:04;;;;;;;6.90;4.63;;;22.70;84.20;;;23.14;54.37;98248.47;5038301;27;119307;-70
2022/08/18 04:36:34;;;;;;;4.97;4.33;;;22.70;84.30;;;23.11;54.41;98232.38;5027813;27;119181;-71
2022/08/18 04:39:03;;;;;;;5.67;4.27;;;22.70;84.40;;;23.09;54.54;98226.34;5027953;27;124058;-71
2022/08/18 04:41:30;;;;;;;5.47;4.20;;;22.60;84.30;;;23.11;54.34;98232.38;5030867;27;123865;-71
2022/08/18 04:44:01;;;;;;;5.37;4.23;;;22.70;84.50;;;23.11;54.20;98235.19;5031259;27;119712;-71
2022/08/18 04:46:30;;;;;;;5.37;3.93;;;22.70;84.50;;;23.11;54.54;98240.84;5036207;27;119752;-71
2022/08/18 04:49:00;;;;;;;5.50;4.00;;;22.70;84.50;;;23.11;54.12;98241.63;5029490;27;123786;-71
2022/08/18 04:51:29;;;;;;;4.73;4.23;;;22.70;84.60;;;23.12;54.31;98239.59;5018905;27;123286;-71
2022/08/18 04:53:59;;;;;;;6.50;4.73;;;22.70;84.60;;;23.13;54.06;98247.66;5027558;27;119710;-71
2022/08/18 04:56:31;;;;;;;5.97;5.00;;;22.70;84.70;;;23.13;54.21;98255.28;5030362;27;119203;-71
2022/08/18 04:59:05;;;;;;;5.00;4.23;;;22.70;84.60;;;23.13;54.25;98263.75;5046222;27;122161;-71
2022/08/18 05:01:44;;;;;;;6.33;4.47;;;22.70;84.70;;;23.14;54.43;98268.19;5036314;27;123850;-71
2022/08/18 05:04:13;;;;;;;5.03;4.03;;;22.70;84.70;;;23.16;54.20;98268.59;5029978;27;119492;-71
2022/08/18 05:06:42;;;;;;;5.00;3.60;;;22.70;84.80;;;23.19;54.16;98267.75;5025914;27;118941;-71
2022/08/18 05:09:11;;;;;;;4.67;4.13;;;22.70;84.70;;;23.23;54.00;98256.47;5036968;27;124059;-71
2022/08/18 05:11:38;;;;;;;6.40;3.87;;;22.70;84.70;;;23.28;53.84;98262.47;5027401;27;123890;-71
2022/08/18 05:14:07;;;;;;;5.17;4.27;;;22.70;84.70;;;23.31;53.99;98264.47;5018066;27;117949;-71
2022/08/18 05:16:36;;;;;;;5.77;4.40;;;22.80;84.80;;;23.32;53.86;98260.44;5031562;27;118677;-71
2022/08/18 05:19:07;;;;;;;4.50;4.10;;;22.80;84.60;;;23.30;53.90;98259.25;5028946;27;122998;-71
2022/08/18 05:21:40;;;;;;;5.00;4.50;;;22.80;84.50;;;23.27;53.96;98255.25;5026917;27;126501;-71
2022/08/18 05:24:08;;;;;;;4.53;4.10;;;22.80;84.50;;;23.26;53.79;98250.78;5030419;27;119221;-71
2022/08/18 05:26:36;;;;;;;4.60;3.90;;;22.80;84.30;;;23.29;54.01;98249.16;5027604;27;119103;-71
2022/08/18 05:29:03;;;;;;;6.00;4.17;;;22.80;84.30;;;23.32;53.99;98248.34;5028797;27;124501;-71
2022/08/18 05:31:29;;;;;;;4.43;3.90;;;22.80;84.30;;;23.35;53.78;98253.97;5026379;27;123558;-71
2022/08/18 05:33:56;;;;;;;5.33;4.53;;;22.90;84.50;;;23.40;53.69;98243.47;5027328;27;120944;-71
2022/08/18 05:36:47;;;;;;;5.23;4.37;;;22.90;84.40;;;23.43;53.37;98248.28;5029824;27;119963;-71
2022/08/18 05:39:56;;;;;;;5.83;4.63;;;22.90;84.40;;;23.44;53.46;98247.88;5027240;27;124043;-71
2022/08/18 05:42:25;;;;;;;5.60;4.33;;;23.00;84.30;;;23.51;53.30;98242.22;4995936;28;124424;-72
2022/08/18 05:44:54;;;;;;;5.27;4.20;;;23.00;84.20;;;23.53;53.21;98242.56;5015034;28;119368;-72
2022/08/18 05:47:26;;;;;;;4.47;4.03;;;23.00;84.00;;;23.56;53.35;98246.59;5029185;27;118275;-71
2022/08/18 05:50:02;;;;;;;6.63;4.70;;;23.00;83.90;;;23.61;53.17;98243.34;5023430;27;123773;-72
2022/08/18 05:52:50;;;;;;;6.47;5.00;;;23.10;84.00;;;23.65;53.02;98246.16;5029799;27;124062;-72
2022/08/18 05:58:28;;;;;;;5.60;4.13;;;23.10;83.70;;;23.64;52.99;98236.84;5028616;27;119463;-72
2022/08/18 06:00:58;;;;;;;5.40;4.53;;;23.10;83.60;;;23.64;53.27;98236.84;5037430;27;123655;-71
2022/08/18 06:03:53;;;;;;;5.67;4.83;;;23.10;83.70;;;23.62;53.29;98239.31;5027445;27;122121;-72
2022/08/18 06:06:28;;;;;;;6.07;4.60;;;23.10;84.10;;;23.59;53.19;98248.59;5044764;27;119648;-71
2022/08/18 06:09:23;;;;;;;6.30;5.43;;;23.10;84.20;;;23.59;53.20;98259.88;5026339;27;118435;-71
2022/08/18 06:11:52;;;;;;;5.87;4.80;;;23.10;84.20;;;23.63;53.28;98260.66;5030440;27;123408;-71
2022/08/18 06:14:19;;;;;;;8.87;5.20;;;23.10;84.20;;;23.66;53.24;98257.00;5026085;27;123347;-72
2022/08/18 06:17:12;;;;;;;5.37;4.80;;;23.10;84.20;;;23.69;53.14;98253.34;5038420;27;119909;-71
2022/08/18 06:20:25;;;;;;;9.53;4.77;;;23.20;84.20;;;23.73;52.92;98254.16;5028449;27;119449;-71
2022/08/18 06:23:28;;;;;;;5.37;4.60;;;23.20;84.10;;;23.76;52.90;98273.06;5028997;27;123970;-72
2022/08/18 06:26:26;;;;;;;5.60;4.63;;;23.20;83.90;;;23.85;52.66;98283.09;5028466;27;123531;-72
2022/08/18 06:29:05;;;;;;;6.80;5.70;;;23.30;84.00;;;23.92;52.70;98283.06;5025626;27;119607;-71
2022/08/18 06:32:13;;;;;;;7.00;5.03;;;23.30;83.90;;;23.93;52.60;98279.78;5010860;27;119151;-71
2022/08/18 06:35:41;;;;;;;9.67;5.17;;;23.40;83.90;;;23.96;52.62;98283.81;5022511;27;123238;-71
2022/08/18 06:41:16;;;;;;;4.97;4.43;;;23.40;83.70;;;24.07;52.45;98264.75;5028772;27;119957;-71
2022/08/18 06:44:03;;;;;;;5.10;4.60;;;23.50;83.60;;;24.13;52.18;98268.75;5023905;27;119462;-72
2022/08/18 06:47:02;;;;;;;7.10;4.97;;;23.50;83.40;;;24.17;52.04;98258.22;5027119;27;124154;-72
2022/08/18 06:49:53;;;;;;;9.53;5.33;;;23.60;83.20;;;24.21;51.93;98252.56;5034460;27;123786;-71
2022/08/18 06:52:32;;;;;;;8.63;5.40;;;23.60;83.00;;;24.27;51.77;98250.09;5030928;27;119555;-72
2022/08/18 06:55:06;;;;;;;6.53;4.57;;;23.70;82.90;;;24.25;51.80;98248.47;5026378;27;119396;-72
2022/08/18 06:57:37;;;;;;;7.50;5.00;;;23.70;82.80;;;24.27;51.71;98250.09;5022558;27;123815;-72
2022/08/18 07:00:33;;;;;;;9.33;5.90;;;23.70;82.80;;;24.30;51.82;98249.25;5025119;27;124024;-72
2022/08/18 07:03:11;;;;;;;8.10;5.50;;;23.70;82.70;;;24.30;51.80;98246.44;5039947;27;119409;-72
2022/08/18 07:05:59;;;;;;;8.40;5.27;;;23.70;82.80;;;24.29;51.60;98247.63;5040754;27;118236;-72
2022/08/18 07:08:40;;;;;;;5.77;5.00;;;23.70;82.90;;;24.32;51.80;98258.13;5040215;27;124085;-72
2022/08/18 07:11:24;;;;;;;5.90;4.50;;;23.70;82.80;;;24.36;51.77;98258.88;5037871;27;124303;-72
2022/08/18 07:13:57;;;;;;;8.67;5.03;;;23.80;82.80;;;24.43;51.62;98272.91;5040816;27;118734;-72
2022/08/18 07:16:26;;;;;;;9.47;5.57;;;23.90;82.90;;;24.45;51.72;98276.16;5016587;27;118317;-72
2022/08/18 07:18:53;;;;;;;7.30;5.70;;;23.90;82.70;;;24.51;51.64;98282.16;5042865;27;123838;-71
2022/08/18 07:21:42;;;;;;;13.90;7.07;;;23.90;82.70;;;24.51;51.60;98294.25;5037214;27;124359;-72
2022/08/18 07:24:29;;;;;;;8.13;6.17;;;24.00;83.00;;;24.53;52.08;98300.28;5042981;27;120467;-71
2022/08/18 07:26:59;;;;;;;8.03;6.20;;;24.00;83.10;;;24.56;51.81;98305.09;5041226;27;121907;-72
2022/08/18 07:29:31;;;;;;;9.10;7.03;;;24.10;83.10;;;24.58;51.77;98296.19;5035135;27;124875;-72
2022/08/18 07:32:14;;;;;;;8.37;6.30;;;24.00;82.90;;;24.60;51.78;98303.03;5028744;27;124073;-71
2022/08/18 07:34:53;;;;;;;6.37;5.60;;;24.10;82.80;;;24.60;51.04;98307.88;5031292;27;119539;-72
2022/08/18 07:38:00;;;;;;;7.10;4.33;;;24.10;82.40;;;24.58;50.98;98315.97;5039071;27;119245;-71
2022/08/18 07:41:08;;;;;;;6.10;4.87;;;24.10;81.90;;;24.55;51.17;98309.13;5036704;27;124396;-72
2022/08/18 07:44:07;;;;;;;5.90;4.30;;;24.10;81.70;;;24.54;51.10;98315.22;5029655;27;124140;-72
2022/08/18 07:46:58;;;;;;;5.97;3.53;;;24.10;81.60;;;24.53;50.69;98324.88;5034303;27;119351;-71
2022/08/18 07:49:32;;;;;;;5.77;4.10;;;24.10;81.30;;;24.50;50.67;98320.88;5039169;27;118307;-71
2022/08/18 07:52:31;;;;;;;5.43;4.20;;;24.00;81.10;;;24.50;50.80;98323.69;5034000;27;124142;-69
2022/08/18 07:55:14;;;;;;;4.50;4.00;;;24.00;81.00;;;24.48;50.67;98312.03;5040403;27;123793;-70
2022/08/18 07:58:01;;;;;;;5.07;4.33;;;24.10;81.10;;;24.46;50.56;98314.47;5039486;27;118717;-70
2022/08/18 08:01:03;;;;;;;4.50;3.77;;;24.00;80.90;;;24.38;50.46;98308.06;5045518;27;119487;-69
2022/08/18 08:03:51;;;;;;;5.67;3.83;;;24.00;80.90;;;24.36;50.76;98324.59;5032716;27;123881;-70
2022/08/18 08:06:38;;;;;;;5.63;5.00;;;24.00;80.90;;;24.34;50.81;98326.25;5041629;27;122821;-70
2022/08/18 08:09:16;;;;;;;6.23;5.03;;;23.90;81.00;;;24.37;50.84;98323.41;5041155;27;119986;-69
2022/08/18 08:11:58;;;;;;;6.53;4.40;;;23.90;81.20;;;24.38;51.04;98324.19;5032017;27;118615;-70
2022/08/18 08:14:50;;;;;;;4.83;4.33;;;23.90;81.20;;;24.40;51.03;98316.13;5039798;27;124114;-71
2022/08/18 08:17:48;;;;;;;6.03;4.20;;;24.00;81.40;;;24.40;50.81;98311.28;5039164;27;123831;-70
2022/08/18 08:20:55;;;;;;;6.23;4.03;;;24.00;81.20;;;24.40;50.92;98316.91;5030019;27;120704;-72
2022/08/18 08:23:35;;;;;;;5.30;4.37;;;24.00;81.30;;;24.48;50.92;98306.41;5000599;28;119908;-72
2022/08/18 08:26:29;;;;;;;6.97;4.80;;;24.00;81.30;;;24.55;50.60;98282.91;5021733;27;124369;-72
2022/08/18 08:29:43;;;;;;;6.60;4.47;;;24.00;81.20;;;24.61;50.58;98286.88;5032237;27;123772;-70
2022/08/18 08:33:01;;;;;;;5.60;5.10;;;24.10;81.30;;;24.66;50.87;98289.25;5037410;27;118248;-71
2022/08/18 08:35:58;;;;;;;5.90;4.63;;;24.10;81.20;;;24.73;50.55;98279.91;4994781;28;118855;-70
2022/08/18 08:38:34;;;;;;;6.33;4.23;;;24.20;81.30;;;24.79;50.25;98270.53;5020079;27;123585;-70
2022/08/18 08:41:19;;;;;;;5.67;4.50;;;24.20;81.40;;;24.84;50.43;98272.91;5023285;27;124573;-71
2022/08/18 08:44:03;;;;;;;6.30;4.33;;;24.30;81.60;;;24.88;50.08;98276.50;5032856;27;120300;-72
2022/08/18 08:46:44;;;;;;;4.97;4.40;;;24.30;81.20;;;24.93;49.87;98269.56;5034224;27;118891;-72
2022/08/18 08:49:24;;;;;;;6.27;4.57;;;24.30;81.10;;;25.00;50.26;98269.47;5027331;27;124734;-71
2022/08/18 08:52:12;;;;;;;7.87;5.17;;;24.40;81.00;;;25.07;50.17;98277.88;5033963;27;124858;-72
2022/08/18 08:55:03;;;;;;;5.53;5.03;;;24.50;80.90;;;25.13;49.66;98270.53;5032603;27;119594;-70
2022/08/18 08:57:39;;;;;;;5.07;4.57;;;24.60;80.90;;;25.23;49.67;98262.38;5028513;27;117206;-71
2022/08/18 09:00:10;;;;;;;6.03;5.03;;;24.60;80.80;;;25.27;49.43;98255.44;5026886;27;124081;-71
2022/08/18 09:03:00;;;;;;;9.00;5.70;;;24.70;80.70;;;25.32;49.83;98273.97;5028980;27;122719;-70
2022/08/18 09:05:43;;;;;;;5.67;5.07;;;24.70;80.60;;;25.33;49.46;98292.50;5031841;27;119492;-71
2022/08/18 09:08:57;;;;;;;6.17;5.30;;;24.80;80.60;;;25.31;49.82;98286.50;5039686;27;119028;-70
2022/08/18 09:11:41;;;;;;;5.87;5.03;;;24.80;80.40;;;25.30;49.88;98265.88;5029763;27;124339;-70
2022/08/18 09:14:42;;;;;;;8.00;5.43;;;24.80;80.40;;;25.32;49.92;98263.44;5027928;27;123875;-70
2022/08/18 09:17:58;;;;;;;5.63;4.13;;;24.80;80.60;;;25.34;49.73;98249.69;5031774;27;120939;-70
2022/08/18 09:21:07;;;;;;;5.37;4.37;;;24.80;80.70;;;25.38;50.17;98232.66;5033268;27;119775;-70
2022/08/18 09:23:49;;;;;;;6.90;4.70;;;24.90;80.90;;;25.50;49.79;98243.41;5040436;27;124113;-69
2022/08/18 09:26:41;;;;;;;5.77;4.80;;;24.90;80.90;;;25.61;49.93;98243.25;5044225;27;122471;-70
2022/08/18 09:29:22;;;;;;;6.93;5.30;;;25.00;80.90;;;25.64;49.59;98236.72;5036854;27;119682;-70
2022/08/18 09:32:17;;;;;;;8.03;5.53;;;25.10;81.00;;;25.61;49.67;98239.63;5040170;27;119093;-72
2022/08/18 09:35:50;;;;;;;6.10;5.43;;;25.10;81.00;;;25.55;49.98;98248.56;5044919;27;122907;-74
2022/08/18 09:41:34;;;;;;;6.13;4.83;;;24.90;81.70;;;25.53;50.43;98267.22;5046142;27;119822;-73
2022/08/18 09:44:12;;;;;;;6.63;6.03;;;25.00;81.70;;;25.56;50.13;98269.97;5033861;27;119027;-71
2022/08/18 09:46:41;;;;;;;7.93;6.70;;;25.00;81.70;;;25.59;50.48;98259.84;5026886;27;125194;-70
2022/08/18 09:49:26;;;;;;;8.87;6.00;;;25.00;82.00;;;25.63;50.31;98259.78;5037647;27;123953;-72
2022/08/18 09:52:25;;;;;;;6.70;5.60;;;25.10;82.00;;;25.69;50.21;98275.06;5030800;27;119331;-71
2022/08/18 09:55:00;;;;;;;8.00;5.73;;;25.10;82.50;;;25.77;50.42;98273.72;5035622;27;118904;-70
2022/08/18 09:57:38;;;;;;;6.80;5.53;;;25.20;81.80;;;25.81;50.50;98271.63;5030524;27;122825;-71
2022/08/18 10:00:11;;;;;;;6.83;5.40;;;25.20;81.90;;;25.90;50.11;98273.94;5025583;27;124209;-70
2022/08/18 10:02:38;;;;;;;6.43;5.60;;;25.30;82.00;;;25.98;50.01;98281.09;5041227;27;119172;-71
2022/08/18 10:05:27;;;;;;;6.93;6.20;;;25.40;81.90;;;26.00;49.86;98278.63;5033734;27;118320;-70
2022/08/18 10:08:15;;;;;;;7.90;5.90;;;25.40;81.80;;;26.00;50.32;98276.59;5035903;27;123909;-72
2022/08/18 10:11:22;;;;;;;5.90;5.30;;;25.40;81.80;;;26.05;49.78;98271.69;5030995;27;124567;-72
2022/08/18 10:14:45;;;;;;;6.30;5.67;;;25.50;81.60;;;26.09;49.96;98264.75;5027118;27;121013;-72
2022/08/18 10:17:51;;;;;;;11.20;6.10;;;25.50;81.50;;;26.13;50.11;98259.00;5025492;27;120474;-76
2022/08/18 10:21:07;;;;;;;6.73;5.77;;;25.60;81.40;;;26.15;50.28;98240.34;5025631;27;124091;-72
2022/08/18 10:24:07;;;;;;;11.00;6.90;;;25.60;81.50;;;26.17;49.95;98245.59;5032745;27;124015;-73
2022/08/18 10:26:36;;;;;;;8.00;5.80;;;25.60;81.40;;;26.21;50.04;98249.16;5018756;27;121558;-72
2022/08/18 10:29:30;;;;;;;8.93;5.90;;;25.60;81.30;;;26.23;49.54;98249.53;5034945;27;119390;-79
2022/08/18 10:32:00;;;;;;;9.27;6.30;;;25.70;81.20;;;26.27;49.72;98224.75;5030014;27;123483;-75
2022/08/18 10:34:55;;;;;;;6.10;5.40;;;25.70;81.10;;;26.26;49.95;98203.34;5031621;27;124479;-73
2022/08/18 10:37:29;;;;;;;9.73;7.43;;;25.80;80.90;;;26.27;49.39;98202.09;5028354;27;119385;-74
2022/08/18 10:40:09;;;;;;;6.53;5.20;;;25.80;80.90;;;26.31;49.51;98191.53;5026096;27;119060;-74
2022/08/18 10:43:29;;;;;;;7.50;6.00;;;25.80;80.90;;;26.31;49.06;98166.03;5030054;27;124448;-76
2022/08/18 10:45:57;;;;;;;7.23;6.53;;;25.80;80.40;;;26.26;49.18;98175.03;5043713;27;123920;-76
2022/08/18 10:48:33;;;;;;;8.10;6.83;;;25.70;80.30;;;26.26;49.08;98189.19;5044925;27;118389;-74
2022/08/18 10:51:44;;;;;;;7.60;6.80;;;26.30;80.90;;;26.33;49.67;98200.41;5042429;27;119066;-73
2022/08/18 10:54:53;;;;;;;8.07;6.03;;;25.80;80.40;;;26.43;48.91;98193.69;5040684;27;123948;-73
2022/08/18 10:57:32;;;;;;;10.40;7.37;;;24.90;79.50;;;26.57;48.83;98184.19;5020811;27;123692;-74
2022/08/18 11:00:42;;;;;;;8.00;5.97;;;26.00;79.90;;;26.63;48.61;98179.59;5027192;27;118507;-75
2022/08/18 11:03:49;;;;;;;7.57;5.80;;;26.00;79.60;;;26.67;48.22;98174.63;5029266;27;119527;-73
2022/08/18 11:06:23;;;;;;;7.37;5.63;;;26.10;78.90;;;26.76;48.15;98170.41;5040402;27;123327;-73
2022/08/18 11:08:58;;;;;;;10.00;6.70;;;26.20;78.50;;;26.82;47.43;98166.63;5029369;27;124707;-75
2022/08/18 11:11:36;;;;;;;11.60;6.47;;;26.30;78.40;;;26.92;47.37;98175.34;5024939;27;120405;-73
2022/08/18 11:14:54;;;;;;;7.93;6.63;;;26.30;78.10;;;27.01;46.82;98175.56;5029014;27;119964;-73
2022/08/18 11:17:48;;;;;;;8.60;6.30;;;26.40;77.50;;;27.04;46.76;98169.00;5040110;27;123812;-74
2022/08/18 11:20:17;;;;;;;7.17;6.47;;;26.50;76.70;;;27.13;47.05;98168.41;5031449;27;123725;-74
2022/08/18 11:22:54;;;;;;;6.70;5.77;;;26.50;76.80;;;27.22;46.68;98174.31;5024951;27;119635;-74
2022/08/18 11:25:28;;;;;;;16.07;8.23;;;26.60;76.50;;;27.27;46.23;98174.59;5038585;27;119033;-74